Eden Valley, Minnesota
Current Conditions -  °F | °C
As of 5:54 PM on Friday 28 Nov 2014 (Local Time) from KPEX Reporting Station
Scattered Clouds Scattered Clouds  
Wind Chill:   Ceiling: Unl
Heat Index: 15°   Visibility: 10mi
Dew Point: 12°   Wind: 5mph
Humidity: 86%   Direction: 40°NE
Pressure: 29.8"   Gusts: NA
Location:  45.33°N, 94.55°W
Report Text: KPEX 282354Z AUTO 04004KT 10SM SCT100 M09/M11 A2980 RMK AO2 T10931112 11085 21101
Loading
Personal Weather Stations






























Interactive Weather Map New forecast layout! Learn more

10-Day Weather Forecast

Advertisements
Track Severe Weather on mobile